createdAt,value
2023-01-23T00:00:21.915Z,86.50
2023-01-23T00:02:52.885Z,86.70
2023-01-23T00:05:20.898Z,87.10
2023-01-23T00:07:51.202Z,87.30
2023-01-23T00:10:21.640Z,87.30
2023-01-23T00:12:53.569Z,87.60
2023-01-23T00:15:24.373Z,87.70
2023-01-23T00:17:52.292Z,87.60
2023-01-23T00:20:24.476Z,87.70
2023-01-23T00:22:52.464Z,87.60
2023-01-23T00:25:23.529Z,87.60
2023-01-23T00:27:52.652Z,87.60
2023-01-23T00:30:21.130Z,87.50
2023-01-23T00:32:51.288Z,87.30
2023-01-23T00:35:19.444Z,87.30
2023-01-23T00:37:52.253Z,87.10
2023-01-23T00:40:22.022Z,86.80
2023-01-23T00:42:50.565Z,86.50
2023-01-23T00:45:19.036Z,86.70
2023-01-23T00:47:48.481Z,86.90
2023-01-23T00:50:17.925Z,87.00
2023-01-23T00:52:47.506Z,87.20
2023-01-23T00:55:20.050Z,87.10
2023-01-23T00:57:51.331Z,87.40
2023-01-23T01:00:19.433Z,87.20
2023-01-23T01:02:51.971Z,86.60
2023-01-23T01:05:22.602Z,86.30
2023-01-23T01:07:54.326Z,86.40
2023-01-23T01:10:24.415Z,86.40
2023-01-23T01:12:52.997Z,86.40
2023-01-23T01:15:24.148Z,86.40
2023-01-23T01:17:54.608Z,86.60
2023-01-23T01:20:26.232Z,86.80
2023-01-23T01:22:59.230Z,86.80
2023-01-23T01:25:34.829Z,86.90
2023-01-23T01:28:04.624Z,87.10
2023-01-23T01:30:35.002Z,86.80
2023-01-23T01:33:03.690Z,86.60
2023-01-23T01:35:34.546Z,86.40
2023-01-23T01:38:02.951Z,86.40
2023-01-23T01:40:34.601Z,86.30
2023-01-23T01:43:08.742Z,86.40
2023-01-23T01:46:14.849Z,86.50
2023-01-23T01:49:11.861Z,86.50
2023-01-23T01:52:05.675Z,86.70
2023-01-23T01:54:55.381Z,86.90
2023-01-23T01:57:35.132Z,86.90
2023-01-23T02:00:17.150Z,87.40
2023-01-23T02:03:07.189Z,87.40
2023-01-23T02:05:45.897Z,87.40
2023-01-23T02:08:17.250Z,87.80
2023-01-23T02:10:47.591Z,87.60
2023-01-23T02:13:37.392Z,87.40
2023-01-23T02:16:18.184Z,87.50
2023-01-23T02:18:54.033Z,87.70
2023-01-23T02:21:28.431Z,87.80
2023-01-23T02:24:17.371Z,87.80
2023-01-23T02:26:47.199Z,87.70
2023-01-23T02:29:16.824Z,87.70
2023-01-23T02:31:46.955Z,88.00
2023-01-23T02:34:16.843Z,87.80
2023-01-23T02:36:49.343Z,87.80
2023-01-23T02:39:19.936Z,87.70
2023-01-23T02:41:51.975Z,87.70
2023-01-23T02:44:27.436Z,87.60
2023-01-23T02:46:58.635Z,87.10
2023-01-23T02:49:28.876Z,87.20
2023-01-23T02:51:57.702Z,87.00
2023-01-23T02:54:27.788Z,87.00
2023-01-23T02:56:57.797Z,86.90
2023-01-23T02:59:45.957Z,86.70
2023-01-23T03:02:15.552Z,86.50
2023-01-23T03:04:48.569Z,86.50
2023-01-23T03:07:16.864Z,86.90
2023-01-23T03:09:47.918Z,86.90
2023-01-23T03:12:20.156Z,86.70
2023-01-23T03:14:50.338Z,86.90
2023-01-23T03:17:18.047Z,86.80
2023-01-23T03:19:48.330Z,86.70
2023-01-23T03:22:18.532Z,86.50
2023-01-23T03:24:47.421Z,86.70
2023-01-23T03:27:19.882Z,86.70
2023-01-23T03:30:08.674Z,86.50
2023-01-23T03:32:43.098Z,86.70
2023-01-23T03:35:20.640Z,86.60
2023-01-23T03:37:53.880Z,86.80
2023-01-23T03:40:43.964Z,86.70
2023-01-23T03:43:17.917Z,86.60
2023-01-23T03:45:51.672Z,86.70
2023-01-23T03:48:24.003Z,86.70
2023-01-23T03:53:42.673Z,86.80
2023-01-23T03:56:14.052Z,87.00
2023-01-23T03:58:48.676Z,87.00
2023-01-23T04:01:20.278Z,87.00
2023-01-23T04:03:51.467Z,86.90
2023-01-23T04:06:20.915Z,87.00
2023-01-23T04:08:49.540Z,87.10
2023-01-23T04:11:22.522Z,87.10
2023-01-23T04:13:51.105Z,87.00
2023-01-23T04:16:20.076Z,87.00
2023-01-23T04:18:48.585Z,87.10
2023-01-23T04:21:17.396Z,87.10
2023-01-23T04:23:46.894Z,87.00
2023-01-23T04:26:23.550Z,86.90
2023-01-23T04:28:55.099Z,87.10
2023-01-23T04:31:26.441Z,87.00
2023-01-23T04:33:57.116Z,87.20
2023-01-23T04:36:26.192Z,87.20
2023-01-23T04:38:54.100Z,87.20
2023-01-23T04:41:24.893Z,87.40
2023-01-23T04:43:54.198Z,87.50
2023-01-23T04:46:23.477Z,87.40
2023-01-23T04:48:58.267Z,87.30
2023-01-23T04:51:26.761Z,87.50
2023-01-23T04:53:56.112Z,87.50
2023-01-23T04:56:23.912Z,87.50
2023-01-23T04:58:54.337Z,87.50
2023-01-23T05:01:23.553Z,87.30
2023-01-23T05:03:52.913Z,87.40
2023-01-23T05:06:20.725Z,87.60
2023-01-23T05:08:52.209Z,87.60
2023-01-23T05:11:21.366Z,87.70
2023-01-23T05:13:49.514Z,87.50
2023-01-23T05:16:17.151Z,87.40
2023-01-23T05:18:44.663Z,87.30
2023-01-23T05:21:12.238Z,87.40
2023-01-23T05:23:40.156Z,87.40
2023-01-23T05:26:07.849Z,87.40
2023-01-23T05:28:35.900Z,87.60
2023-01-23T05:31:03.738Z,87.80
2023-01-23T05:33:31.612Z,87.70
2023-01-23T05:36:01.310Z,87.60
2023-01-23T05:38:29.587Z,87.60
2023-01-23T05:40:57.394Z,87.60
2023-01-23T05:43:25.462Z,87.60
2023-01-23T05:45:55.597Z,87.60
2023-01-23T05:48:24.286Z,87.70
2023-01-23T05:50:51.750Z,87.80
2023-01-23T05:53:20.104Z,87.70
2023-01-23T05:55:47.865Z,87.70
2023-01-23T05:58:16.103Z,87.80
2023-01-23T06:00:45.833Z,87.70
2023-01-23T06:03:13.371Z,87.70
2023-01-23T06:05:41.946Z,87.80
2023-01-23T06:08:10.821Z,87.80
2023-01-23T06:10:41.347Z,87.70
2023-01-23T06:13:11.100Z,87.70
2023-01-23T06:15:40.128Z,87.80
2023-01-23T06:18:08.020Z,87.80
2023-01-23T06:20:36.039Z,87.80
2023-01-23T06:23:03.720Z,87.90
2023-01-23T06:25:31.447Z,88.00
2023-01-23T06:27:59.109Z,88.00
2023-01-23T06:30:27.670Z,88.00
2023-01-23T06:32:57.353Z,88.10
2023-01-23T06:35:25.963Z,88.20
2023-01-23T06:37:54.046Z,88.10
2023-01-23T06:40:21.755Z,88.10
2023-01-23T06:42:51.199Z,88.10
2023-01-23T06:45:20.387Z,88.00
2023-01-23T06:47:52.863Z,88.20
2023-01-23T06:50:21.494Z,88.20
2023-01-23T06:52:49.815Z,88.20
2023-01-23T06:55:17.967Z,88.20
2023-01-23T06:57:47.082Z,88.20
2023-01-23T07:00:18.312Z,88.30
2023-01-23T07:02:49.117Z,88.00
2023-01-23T07:05:19.764Z,88.00
2023-01-23T07:07:50.849Z,88.20
2023-01-23T07:10:18.830Z,88.10
2023-01-23T07:12:47.169Z,88.10
2023-01-23T07:15:15.685Z,88.10
2023-01-23T07:17:44.360Z,88.00
2023-01-23T07:20:12.277Z,88.20
2023-01-23T07:22:41.747Z,88.10
2023-01-23T07:25:11.385Z,88.10
2023-01-23T07:27:39.299Z,88.10
2023-01-23T07:30:07.556Z,88.00
2023-01-23T07:32:36.156Z,87.90
2023-01-23T07:35:04.661Z,87.90
2023-01-23T07:37:36.411Z,88.00
2023-01-23T07:40:04.963Z,88.00
2023-01-23T07:42:36.873Z,87.90
2023-01-23T07:45:06.664Z,87.90
2023-01-23T07:47:39.923Z,88.00
2023-01-23T07:50:12.979Z,88.00
2023-01-23T07:52:41.682Z,87.90
2023-01-23T07:55:10.850Z,87.90
2023-01-23T07:57:39.240Z,87.70
2023-01-23T08:00:08.036Z,87.80
2023-01-23T08:02:38.076Z,87.90
2023-01-23T08:05:07.971Z,87.70
2023-01-23T08:07:37.790Z,87.70
2023-01-23T08:10:06.776Z,87.60
2023-01-23T08:12:35.767Z,87.40
2023-01-23T08:15:04.168Z,87.20
2023-01-23T08:17:33.220Z,86.80
2023-01-23T08:20:00.910Z,86.80
2023-01-23T08:22:32.979Z,86.50
2023-01-23T08:25:01.460Z,86.50
2023-01-23T08:27:32.654Z,86.50
2023-01-23T08:30:08.980Z,86.60
2023-01-23T08:32:37.110Z,86.70
2023-01-23T08:35:08.207Z,87.10
2023-01-23T08:37:38.526Z,86.90
2023-01-23T08:40:09.635Z,86.80
2023-01-23T08:42:39.179Z,86.80
2023-01-23T08:45:08.272Z,86.60
2023-01-23T08:47:37.192Z,86.60
2023-01-23T08:50:06.743Z,86.50
2023-01-23T08:52:36.592Z,86.50
2023-01-23T08:55:07.492Z,86.60
2023-01-23T08:57:36.621Z,86.40
2023-01-23T09:00:04.917Z,86.20
2023-01-23T09:02:32.858Z,85.90
2023-01-23T09:05:01.033Z,85.80
2023-01-23T09:07:29.396Z,85.20
2023-01-23T09:09:57.792Z,84.40
2023-01-23T09:12:25.614Z,84.10
2023-01-23T09:14:53.649Z,83.90
2023-01-23T09:17:21.458Z,83.10
2023-01-23T09:19:49.971Z,82.80
2023-01-23T09:22:19.403Z,82.20
2023-01-23T09:24:49.353Z,82.40
2023-01-23T09:27:18.753Z,82.70
2023-01-23T09:29:46.394Z,82.90
2023-01-23T09:32:14.178Z,82.60
2023-01-23T09:34:42.685Z,82.30
2023-01-23T09:37:10.460Z,82.20
2023-01-23T09:39:37.982Z,82.40
2023-01-23T09:42:08.825Z,82.20
2023-01-23T09:44:47.244Z,82.20
2023-01-23T09:47:23.571Z,82.20
2023-01-23T09:50:03.039Z,82.10
2023-01-23T09:52:35.568Z,82.50
2023-01-23T09:55:18.996Z,82.30
2023-01-23T09:57:57.881Z,82.20
2023-01-23T10:00:32.074Z,82.40
2023-01-23T10:03:03.543Z,82.70
2023-01-23T10:05:47.947Z,82.30
2023-01-23T10:09:05.031Z,81.80
2023-01-23T10:11:51.884Z,81.30
2023-01-23T10:14:36.494Z,81.70
2023-01-23T10:17:42.280Z,81.80
2023-01-23T10:20:57.288Z,81.30
2023-01-23T10:23:31.434Z,81.20
2023-01-23T10:26:04.906Z,81.20
2023-01-23T10:28:39.557Z,81.10
2023-01-23T10:31:36.100Z,80.80
2023-01-23T10:34:13.502Z,80.90
2023-01-23T10:37:18.524Z,81.50
2023-01-23T10:40:46.043Z,81.10
2023-01-23T10:43:18.192Z,79.70
2023-01-23T10:45:50.760Z,79.80
2023-01-23T10:48:33.874Z,79.80
2023-01-23T10:51:04.750Z,80.20
2023-01-23T10:53:34.047Z,80.10
2023-01-23T10:56:05.043Z,81.00
2023-01-23T10:58:43.612Z,80.30
2023-01-23T11:01:47.166Z,80.70
2023-01-23T11:04:25.133Z,80.80
2023-01-23T11:07:21.020Z,80.90
2023-01-23T11:10:08.599Z,80.30
2023-01-23T11:12:48.854Z,81.40
2023-01-23T11:15:31.252Z,80.40
2023-01-23T11:18:01.964Z,80.40
2023-01-23T11:20:32.206Z,79.90
2023-01-23T11:23:18.613Z,79.70
2023-01-23T11:25:52.088Z,79.60
2023-01-23T11:28:46.606Z,78.50
2023-01-23T11:31:23.177Z,78.00
2023-01-23T11:33:54.084Z,77.60
2023-01-23T11:36:41.154Z,77.30
2023-01-23T11:39:57.391Z,76.80
2023-01-23T11:42:28.706Z,76.80
2023-01-23T11:45:01.886Z,76.80
2023-01-23T11:47:38.636Z,76.20
2023-01-23T11:50:54.398Z,76.00
2023-01-23T11:53:42.469Z,76.60
2023-01-23T11:56:35.865Z,77.00
2023-01-23T11:59:24.086Z,77.20
2023-01-23T12:04:40.506Z,77.70
2023-01-23T12:07:34.305Z,77.30
2023-01-23T12:10:24.058Z,77.30
2023-01-23T12:13:10.571Z,75.80
2023-01-23T12:16:30.363Z,74.90
2023-01-23T12:19:13.591Z,74.70
2023-01-23T12:22:13.174Z,74.40
2023-01-23T12:25:14.388Z,74.30
2023-01-23T12:27:44.485Z,74.50
2023-01-23T12:30:14.954Z,74.10
2023-01-23T12:33:14.480Z,73.90
2023-01-23T12:35:45.229Z,73.40
2023-01-23T12:38:31.301Z,74.10
2023-01-23T12:41:04.952Z,74.60
2023-01-23T12:43:44.352Z,74.40
2023-01-23T12:46:34.145Z,74.50
2023-01-23T12:49:28.394Z,74.70
2023-01-23T12:52:16.037Z,75.10
2023-01-23T12:54:51.060Z,75.40
2023-01-23T12:57:52.801Z,75.40
2023-01-23T13:01:06.196Z,75.90
2023-01-23T13:04:10.644Z,75.70
2023-01-23T13:06:48.555Z,76.50
2023-01-23T13:09:42.548Z,76.60
2023-01-23T13:12:24.029Z,76.80
2023-01-23T13:15:13.419Z,76.90
2023-01-23T13:17:58.184Z,77.10
2023-01-23T13:21:13.298Z,76.40
2023-01-23T13:23:41.115Z,76.70
2023-01-23T13:26:23.013Z,77.00
2023-01-23T13:29:14.834Z,77.30
2023-01-23T13:31:50.021Z,77.70
2023-01-23T13:34:21.191Z,78.50
2023-01-23T13:36:50.396Z,78.70
2023-01-23T13:39:18.472Z,78.60
2023-01-23T13:41:48.260Z,79.00
2023-01-23T13:44:27.078Z,78.80
2023-01-23T14:22:37.518Z,81.10
2023-01-23T14:25:16.946Z,81.10
2023-01-23T14:27:54.387Z,81.20
2023-01-23T14:30:27.159Z,81.60
2023-01-23T14:32:56.048Z,81.70
2023-01-23T14:35:26.442Z,82.10
2023-01-23T14:38:05.532Z,82.20
2023-01-23T14:40:48.913Z,82.00
2023-01-23T14:43:22.020Z,82.20
2023-01-23T14:45:59.629Z,82.40
2023-01-23T14:48:28.024Z,82.50
2023-01-23T14:51:20.074Z,82.70
2023-01-23T14:54:06.472Z,83.00
2023-01-23T14:56:41.923Z,83.30
2023-01-23T14:59:37.788Z,83.20
2023-01-23T15:02:47.074Z,83.40
2023-01-23T15:05:27.055Z,83.40
2023-01-23T15:08:03.324Z,83.60
2023-01-23T15:10:37.230Z,83.70
2023-01-23T15:13:14.764Z,83.40
2023-01-23T15:15:51.393Z,83.40
2023-01-23T15:18:34.218Z,83.50
2023-01-23T15:21:08.299Z,83.70
2023-01-23T15:23:38.187Z,83.60
2023-01-23T15:26:15.756Z,83.80
2023-01-23T15:28:56.916Z,83.90
2023-01-23T15:31:26.550Z,83.70
2023-01-23T15:33:56.816Z,83.90
2023-01-23T15:36:30.525Z,83.90
2023-01-23T15:38:59.815Z,84.00
2023-01-23T15:41:45.209Z,84.10
2023-01-23T15:44:16.013Z,84.30
2023-01-23T15:46:47.248Z,84.20
2023-01-23T15:49:24.766Z,84.20
2023-01-23T15:51:55.564Z,84.50
2023-01-23T15:54:42.720Z,84.60
2023-01-23T15:57:13.382Z,84.70
2023-01-23T15:59:41.767Z,84.60
2023-01-23T16:02:30.077Z,85.00
2023-01-23T16:05:01.243Z,85.20
2023-01-23T16:07:39.971Z,85.00
2023-01-23T16:10:28.862Z,85.00
2023-01-23T16:12:58.168Z,85.00
2023-01-23T16:15:28.389Z,85.30
2023-01-23T16:17:56.936Z,85.20
2023-01-23T16:20:31.218Z,85.30
2023-01-23T16:23:14.169Z,85.30
2023-01-23T16:25:45.980Z,85.20
2023-01-23T16:28:20.084Z,85.30
2023-01-23T16:30:50.990Z,85.40
2023-01-23T16:33:20.437Z,85.60
2023-01-23T16:35:49.818Z,85.70
2023-01-23T16:38:27.261Z,85.60
2023-01-23T16:40:58.160Z,85.70
2023-01-23T16:43:27.056Z,85.80
2023-01-23T16:45:56.703Z,85.80
2023-01-23T16:48:28.321Z,85.90
2023-01-23T16:51:05.025Z,85.90
2023-01-23T16:53:43.118Z,86.00
2023-01-23T16:56:23.554Z,85.90
2023-01-23T16:58:51.576Z,86.10
2023-01-23T17:01:30.544Z,86.30
2023-01-23T17:04:02.368Z,86.10
2023-01-23T17:06:31.071Z,86.40
2023-01-23T17:09:03.393Z,86.30
2023-01-23T17:11:39.881Z,86.30
2023-01-23T17:14:14.905Z,86.50
2023-01-23T17:16:45.933Z,86.50
2023-01-23T17:19:27.143Z,86.50
2023-01-23T17:21:56.637Z,86.70
2023-01-23T17:24:25.604Z,86.80
2023-01-23T17:26:53.748Z,86.90
2023-01-23T17:29:22.227Z,87.00
2023-01-23T17:31:51.811Z,87.10
2023-01-23T17:34:26.445Z,87.20
2023-01-23T17:36:56.119Z,87.00
2023-01-23T17:39:24.370Z,87.00
2023-01-23T17:41:52.793Z,87.10
2023-01-23T17:44:20.900Z,87.10
2023-01-23T17:46:49.066Z,87.00
2023-01-23T17:49:30.077Z,87.00
2023-01-23T17:52:00.381Z,86.90
2023-01-23T17:54:28.726Z,86.80
2023-01-23T17:56:56.467Z,87.00
2023-01-23T17:59:24.406Z,87.00
2023-01-23T18:01:53.351Z,87.00
2023-01-23T18:04:22.447Z,86.90
2023-01-23T18:06:50.702Z,86.90
2023-01-23T18:09:21.523Z,86.90
2023-01-23T18:11:54.171Z,86.90
2023-01-23T18:14:41.564Z,87.00
2023-01-23T18:17:26.330Z,86.80
2023-01-23T18:19:54.243Z,87.10
2023-01-23T18:22:22.107Z,87.00
2023-01-23T18:24:49.940Z,87.00
2023-01-23T18:27:27.213Z,87.10
2023-01-23T18:30:27.271Z,87.20
2023-01-23T18:33:30.262Z,87.10
2023-01-23T18:36:16.492Z,87.00
2023-01-23T18:39:13.988Z,87.10
2023-01-23T18:42:06.610Z,87.10
2023-01-23T18:44:34.773Z,87.00
2023-01-23T18:47:05.700Z,87.00
2023-01-23T18:49:33.855Z,87.20
2023-01-23T18:52:06.814Z,87.10
2023-01-23T18:54:54.724Z,87.10
2023-01-23T18:57:41.285Z,87.20
2023-01-23T19:00:29.098Z,87.10
2023-01-23T19:03:09.645Z,87.10
2023-01-23T19:05:37.717Z,87.10
2023-01-23T19:08:06.980Z,87.10
2023-01-23T19:10:48.762Z,87.10
2023-01-23T19:13:42.948Z,87.10
2023-01-23T19:16:32.577Z,87.30
2023-01-23T19:19:26.858Z,87.30
2023-01-23T19:21:55.640Z,87.20
2023-01-23T19:24:23.418Z,87.20
2023-01-23T19:26:51.251Z,87.20
2023-01-23T19:29:22.419Z,87.20
2023-01-23T19:32:07.253Z,87.20
2023-01-23T19:34:35.910Z,87.30
2023-01-23T19:37:04.072Z,87.30
2023-01-23T19:39:32.165Z,87.30
2023-01-23T19:42:00.216Z,87.40
2023-01-23T19:44:30.414Z,87.60
2023-01-23T19:46:58.957Z,87.50
2023-01-23T19:49:27.227Z,87.50
2023-01-23T19:51:55.119Z,87.50
2023-01-23T19:54:24.382Z,87.50
2023-01-23T19:56:52.780Z,87.70
2023-01-23T19:59:20.823Z,87.60
2023-01-23T20:01:51.084Z,87.70
2023-01-23T20:04:24.389Z,87.50
2023-01-23T20:06:52.558Z,87.60
2023-01-23T20:09:21.386Z,87.70
2023-01-23T20:11:49.470Z,87.60
2023-01-23T20:14:18.436Z,87.60
2023-01-23T20:16:46.485Z,87.70
2023-01-23T20:19:16.408Z,87.70
2023-01-23T20:21:48.624Z,87.70
2023-01-23T20:24:16.659Z,87.60
2023-01-23T20:26:46.219Z,87.70
2023-01-23T20:29:13.679Z,87.70
2023-01-23T20:31:41.916Z,87.70
2023-01-23T20:34:09.435Z,87.90
2023-01-23T20:36:37.456Z,87.80
2023-01-23T20:39:05.861Z,87.70
2023-01-23T20:41:34.475Z,87.70
2023-01-23T20:44:02.288Z,87.70
2023-01-23T20:46:30.059Z,87.70
2023-01-23T20:48:59.591Z,87.70
2023-01-23T20:51:30.456Z,87.80
2023-01-23T20:54:00.050Z,87.80
2023-01-23T20:56:28.086Z,87.80
2023-01-23T20:59:15.428Z,87.80
2023-01-23T21:02:03.276Z,87.80
2023-01-23T21:04:35.076Z,87.80
2023-01-23T21:07:04.706Z,88.00
2023-01-23T21:09:32.586Z,88.00
2023-01-23T21:12:00.366Z,88.10
2023-01-23T21:14:28.908Z,88.10
2023-01-23T21:16:58.544Z,88.30
2023-01-23T21:19:26.607Z,88.30
2023-01-23T21:21:54.176Z,88.20
2023-01-23T21:24:21.757Z,88.30
2023-01-23T21:26:49.508Z,88.40
2023-01-23T21:29:18.129Z,88.40
2023-01-23T21:31:46.076Z,88.40
2023-01-23T21:34:14.863Z,88.50
2023-01-23T21:36:43.005Z,88.40
2023-01-23T21:39:15.024Z,88.50
2023-01-23T21:41:43.877Z,88.40
2023-01-23T21:44:12.437Z,88.50
2023-01-23T21:46:41.470Z,88.60
2023-01-23T21:49:09.371Z,88.50
2023-01-23T21:51:37.089Z,88.60
2023-01-23T21:54:05.412Z,88.60
2023-01-23T21:56:33.288Z,88.60
2023-01-23T21:59:02.927Z,88.60
2023-01-23T22:01:36.083Z,88.70
2023-01-23T22:04:22.510Z,88.70
2023-01-23T22:06:55.741Z,88.80
2023-01-23T22:09:24.834Z,88.70
2023-01-23T22:11:54.124Z,88.70
2023-01-23T22:14:21.995Z,88.80
2023-01-23T22:16:50.899Z,88.80
2023-01-23T22:19:24.964Z,88.80
2023-01-23T22:21:54.665Z,88.80
2023-01-23T22:24:22.700Z,88.70
2023-01-23T22:26:53.585Z,88.80
2023-01-23T22:29:23.062Z,88.80
2023-01-23T22:31:55.229Z,88.90
2023-01-23T22:34:22.919Z,88.90
2023-01-23T22:36:53.044Z,88.90
2023-01-23T22:39:20.661Z,89.00
2023-01-23T22:42:09.417Z,89.10
2023-01-23T22:44:37.092Z,89.10
2023-01-23T22:47:05.515Z,89.10
2023-01-23T22:49:34.703Z,89.10
2023-01-23T22:52:06.998Z,89.00
2023-01-23T22:54:37.133Z,89.00
2023-01-23T22:57:05.950Z,89.00
2023-01-23T22:59:33.615Z,89.10
2023-01-23T23:02:01.327Z,89.00
2023-01-23T23:04:29.628Z,89.20
2023-01-23T23:06:57.449Z,89.10
2023-01-23T23:09:25.619Z,88.90
2023-01-23T23:11:53.125Z,88.90
2023-01-23T23:14:21.281Z,89.00
2023-01-23T23:16:49.183Z,89.00
2023-01-23T23:19:17.409Z,89.10
2023-01-23T23:21:45.532Z,89.20
2023-01-23T23:24:14.015Z,89.20
2023-01-23T23:26:42.346Z,89.20
2023-01-23T23:29:09.986Z,89.30
2023-01-23T23:31:38.127Z,89.30
2023-01-23T23:34:06.636Z,89.30
2023-01-23T23:36:34.842Z,89.30
2023-01-23T23:39:04.544Z,89.20
2023-01-23T23:41:32.183Z,89.30
2023-01-23T23:44:00.240Z,89.30
2023-01-23T23:46:28.195Z,89.40
2023-01-23T23:48:56.252Z,89.50
2023-01-23T23:51:26.718Z,89.50
2023-01-23T23:53:55.830Z,89.50
2023-01-23T23:56:28.186Z,89.50
2023-01-23T23:58:56.674Z,89.60
